createdAt,value
2023-02-22T00:36:00.475Z,6.82
2023-02-22T00:38:27.047Z,7.35
2023-02-22T00:40:53.500Z,7.25
2023-02-22T00:43:19.899Z,6.93
2023-02-22T00:45:46.316Z,7.45
2023-02-22T00:48:13.397Z,7.88
2023-02-22T00:50:40.045Z,6.72
2023-02-22T00:53:07.475Z,7.20
2023-02-22T00:55:35.362Z,7.80
2023-02-22T00:58:04.845Z,7.82
2023-02-22T01:00:32.917Z,8.03
2023-02-22T01:02:59.869Z,9.80
2023-02-22T01:05:28.148Z,10.60
2023-02-22T01:07:56.004Z,8.98
2023-02-22T01:10:23.702Z,12.30
2023-02-22T01:12:50.609Z,10.75
2023-02-22T01:15:21.828Z,10.15
2023-02-22T01:17:48.879Z,10.98
2023-02-22T01:20:15.874Z,10.93
2023-02-22T01:22:43.423Z,10.35
2023-02-22T01:25:10.743Z,9.35
2023-02-22T01:27:38.502Z,10.40
2023-02-22T01:30:08.633Z,8.63
2023-02-22T01:32:38.434Z,8.15
2023-02-22T01:35:08.623Z,8.73
2023-02-22T01:37:35.900Z,9.75
2023-02-22T01:40:04.209Z,8.38
2023-02-22T01:42:30.796Z,8.38
2023-02-22T01:45:15.984Z,9.45
2023-02-22T01:47:42.911Z,7.90
2023-02-22T01:50:10.733Z,9.98
2023-02-22T01:52:37.636Z,8.48
2023-02-22T01:55:04.194Z,8.80
2023-02-22T01:57:36.723Z,7.78
2023-02-22T02:00:14.983Z,8.05
2023-02-22T02:02:43.124Z,7.70
2023-02-22T02:05:10.115Z,9.30
2023-02-22T02:07:37.592Z,9.18
2023-02-22T02:10:06.622Z,9.23
2023-02-22T02:12:35.815Z,10.10
2023-02-22T02:15:17.690Z,8.27
2023-02-22T02:17:48.971Z,9.02
2023-02-22T02:20:29.547Z,9.05
2023-02-22T02:23:01.040Z,7.07
2023-02-22T02:25:43.041Z,9.65
2023-02-22T02:28:46.990Z,7.65
2023-02-22T02:31:19.433Z,8.82
2023-02-22T02:33:59.177Z,8.27
2023-02-22T02:36:38.172Z,8.48
2023-02-22T02:39:16.947Z,8.27
2023-02-22T02:41:47.077Z,7.20
2023-02-22T02:44:25.383Z,8.80
2023-02-22T02:46:51.854Z,8.32
2023-02-22T02:49:22.281Z,10.57
2023-02-22T02:54:15.454Z,8.48
2023-02-22T02:56:43.749Z,8.88
2023-02-22T02:59:26.056Z,7.95
2023-02-22T03:01:55.767Z,7.63
2023-02-22T03:04:35.185Z,7.30
2023-02-22T03:07:13.994Z,8.93
2023-02-22T03:09:43.611Z,10.05
2023-02-22T03:12:17.999Z,9.23
2023-02-22T03:14:56.861Z,8.80
2023-02-22T03:17:26.938Z,8.27
2023-02-22T03:20:04.947Z,10.27
2023-02-22T03:22:33.676Z,9.65
2023-02-22T03:25:08.974Z,10.70
2023-02-22T03:27:43.848Z,9.52
2023-02-22T03:30:33.788Z,10.52
2023-02-22T03:33:01.604Z,9.75
2023-02-22T03:35:35.512Z,9.30
2023-02-22T03:38:04.246Z,11.07
2023-02-22T03:40:36.757Z,10.98
2023-02-22T03:43:18.851Z,10.20
2023-02-22T03:45:47.407Z,12.40
2023-02-22T03:48:23.734Z,12.25
2023-02-22T03:50:51.070Z,9.55
2023-02-22T03:53:18.627Z,10.40
2023-02-22T03:55:46.361Z,11.60
2023-02-22T03:58:13.992Z,12.65
2023-02-22T04:00:44.750Z,10.60
2023-02-22T04:03:11.820Z,11.07
2023-02-22T04:05:38.420Z,10.90
2023-02-22T04:08:06.481Z,10.63
2023-02-22T04:10:33.705Z,10.73
2023-02-22T04:13:00.195Z,10.35
2023-02-22T04:15:26.864Z,11.55
2023-02-22T04:17:53.336Z,11.75
2023-02-22T04:20:20.101Z,11.10
2023-02-22T04:22:47.338Z,12.18
2023-02-22T04:25:14.163Z,11.20
2023-02-22T04:27:40.570Z,12.18
2023-02-22T04:30:07.270Z,9.98
2023-02-22T04:32:33.768Z,11.30
2023-02-22T04:35:00.197Z,11.27
2023-02-22T04:37:26.560Z,11.95
2023-02-22T04:39:53.076Z,9.98
2023-02-22T04:42:19.929Z,13.02
2023-02-22T04:44:46.415Z,12.25
2023-02-22T04:47:12.988Z,13.73
2023-02-22T04:49:39.448Z,11.30
2023-02-22T04:52:05.810Z,13.70
2023-02-22T04:54:32.291Z,12.75
2023-02-22T04:56:58.806Z,11.02
2023-02-22T04:59:25.486Z,13.20
2023-02-22T05:01:51.984Z,12.15
2023-02-22T05:04:18.604Z,12.60
2023-02-22T05:06:44.965Z,13.07
2023-02-22T05:09:11.419Z,13.65
2023-02-22T05:11:37.892Z,11.45
2023-02-22T05:14:04.452Z,12.25
2023-02-22T05:16:30.975Z,11.82
2023-02-22T05:18:57.452Z,12.85
2023-02-22T05:21:24.225Z,11.88
2023-02-22T05:23:50.870Z,12.88
2023-02-22T05:26:17.564Z,11.13
2023-02-22T05:28:44.111Z,11.27
2023-02-22T05:31:10.694Z,12.25
2023-02-22T05:33:37.384Z,13.00
2023-02-22T05:36:03.938Z,11.77
2023-02-22T05:38:30.436Z,13.38
2023-02-22T05:40:57.137Z,11.10
2023-02-22T05:43:23.649Z,11.50
2023-02-22T05:45:50.306Z,11.73
2023-02-22T05:48:16.872Z,12.18
2023-02-22T05:50:44.159Z,11.93
2023-02-22T05:53:10.631Z,12.60
2023-02-22T05:55:37.130Z,10.65
2023-02-22T05:58:06.016Z,12.20
2023-02-22T06:00:32.654Z,12.00
2023-02-22T06:03:00.512Z,12.18
2023-02-22T06:05:27.666Z,11.98
2023-02-22T06:07:54.481Z,11.80
2023-02-22T06:10:20.950Z,12.15
2023-02-22T06:12:47.899Z,12.32
2023-02-22T06:15:18.962Z,11.20
2023-02-22T06:17:45.579Z,10.57
2023-02-22T06:20:13.433Z,12.63
2023-02-22T06:22:42.955Z,10.48
2023-02-22T06:25:10.277Z,11.35
2023-02-22T06:27:37.377Z,10.38
2023-02-22T06:30:04.062Z,12.35
2023-02-22T06:32:31.630Z,11.00
2023-02-22T06:34:58.288Z,11.55
